createdAt,value
2019-02-02T00:03:03.414Z,30.73
2019-02-02T00:06:08.909Z,27.67
2019-02-02T00:09:13.743Z,27.03
2019-02-02T00:12:18.485Z,26.67
2019-02-02T00:15:23.235Z,24.97
2019-02-02T00:18:27.655Z,28.27
2019-02-02T00:21:32.366Z,26.90
2019-02-02T00:24:36.865Z,26.47
2019-02-02T00:27:41.853Z,25.00
2019-02-02T00:30:46.473Z,26.70
2019-02-02T00:33:50.934Z,25.63
2019-02-02T00:36:55.393Z,23.33
2019-02-02T00:39:59.835Z,21.57
2019-02-02T00:43:04.716Z,23.33
2019-02-02T00:46:09.236Z,22.17
2019-02-02T00:49:14.029Z,22.13
2019-02-02T00:52:18.477Z,19.53
2019-02-02T00:55:22.997Z,19.70
2019-02-02T00:58:27.445Z,21.37
2019-02-02T01:01:31.886Z,20.93
2019-02-02T01:04:36.334Z,21.53
2019-02-02T01:07:40.780Z,20.63
2019-02-02T01:10:45.500Z,22.03
2019-02-02T01:13:49.945Z,21.10
2019-02-02T01:16:54.383Z,22.37
2019-02-02T01:19:59.070Z,22.83
2019-02-02T01:23:03.577Z,21.50
2019-02-02T01:26:08.151Z,21.60
2019-02-02T01:29:12.956Z,21.20
2019-02-02T01:32:17.686Z,20.07
2019-02-02T01:35:22.617Z,20.77
2019-02-02T01:38:27.060Z,21.37
2019-02-02T01:41:31.514Z,21.20
2019-02-02T01:44:35.939Z,20.87
2019-02-02T01:47:40.380Z,21.30
2019-02-02T01:50:45.144Z,20.67
2019-02-02T01:53:49.585Z,19.23
2019-02-02T01:56:54.032Z,21.53
2019-02-02T01:59:58.481Z,21.53
2019-02-02T02:03:03.087Z,21.83
2019-02-02T02:06:07.777Z,19.83
2019-02-02T02:09:12.608Z,21.43
2019-02-02T02:12:17.047Z,21.70
2019-02-02T02:15:21.868Z,21.73
2019-02-02T02:18:26.319Z,21.03
2019-02-02T02:21:30.758Z,21.73
2019-02-02T02:24:35.191Z,21.97
2019-02-02T02:27:39.699Z,22.73
2019-02-02T02:30:47.243Z,25.20
2019-02-02T02:33:50.309Z,23.80
2019-02-02T02:36:54.751Z,24.03
2019-02-02T02:39:59.190Z,21.77
2019-02-02T02:43:03.935Z,21.07
2019-02-02T02:46:08.374Z,21.97
2019-02-02T02:49:12.808Z,21.33
2019-02-02T02:52:17.511Z,21.07
2019-02-02T02:55:22.030Z,24.30
2019-02-02T02:58:26.465Z,20.73
2019-02-02T03:01:30.907Z,19.63
2019-02-02T03:04:35.351Z,21.30
2019-02-02T03:07:39.861Z,21.23
2019-02-02T03:10:44.696Z,22.33
2019-02-02T03:13:49.115Z,22.07
2019-02-02T03:16:53.633Z,18.60
2019-02-02T03:19:58.059Z,20.10
2019-02-02T03:23:02.500Z,19.90
2019-02-02T03:26:06.941Z,20.40
2019-02-02T03:29:11.717Z,20.53
2019-02-02T03:32:16.167Z,19.83
2019-02-02T03:35:23.984Z,19.27
2019-02-02T03:38:28.683Z,21.07
2019-02-02T03:41:33.112Z,19.00
2019-02-02T03:44:37.558Z,20.33
2019-02-02T03:47:42.219Z,20.03
2019-02-02T03:50:46.629Z,19.43
2019-02-02T03:53:51.067Z,18.10
2019-02-02T03:56:55.828Z,19.13
2019-02-02T04:00:00.268Z,17.47
2019-02-02T04:03:05.100Z,18.77
2019-02-02T04:06:09.516Z,18.87
2019-02-02T04:09:14.325Z,19.33
2019-02-02T04:12:18.757Z,17.47
2019-02-02T04:15:23.498Z,17.30
2019-02-02T04:18:27.935Z,16.03
2019-02-02T04:21:32.370Z,16.83
2019-02-02T04:24:36.815Z,16.77
2019-02-02T04:27:41.606Z,17.77
2019-02-02T04:30:46.331Z,16.63
2019-02-02T04:33:50.774Z,16.20
2019-02-02T04:36:55.211Z,16.97
2019-02-02T04:39:59.666Z,15.93
2019-02-02T04:43:04.118Z,17.63
2019-02-02T04:46:08.633Z,17.90
2019-02-02T04:49:13.391Z,17.87
2019-02-02T04:52:18.117Z,17.60
2019-02-02T04:55:22.633Z,18.03
2019-02-02T04:58:27.070Z,15.70
2019-02-02T05:01:31.500Z,17.27
2019-02-02T05:04:35.948Z,18.47
2019-02-02T05:07:40.397Z,17.73
2019-02-02T05:10:45.173Z,19.00
2019-02-02T05:13:49.619Z,21.03
2019-02-02T05:16:54.319Z,18.70
2019-02-02T05:19:59.062Z,17.73
2019-02-02T05:23:03.790Z,18.43
2019-02-02T05:26:08.297Z,17.43
2019-02-02T05:29:12.741Z,17.30
2019-02-02T05:32:17.469Z,16.53
2019-02-02T05:35:22.304Z,16.77
2019-02-02T05:38:26.815Z,17.30
2019-02-02T05:41:31.556Z,16.37
2019-02-02T05:44:36.283Z,17.47
2019-02-02T05:47:40.724Z,18.37
2019-02-02T05:50:45.155Z,17.77
2019-02-02T05:53:49.866Z,16.60
2019-02-02T05:56:54.296Z,18.47
2019-02-02T05:59:59.046Z,17.13
2019-02-02T06:03:03.752Z,19.07
2019-02-02T06:06:08.188Z,17.73
2019-02-02T06:09:12.904Z,19.17
2019-02-02T06:12:17.338Z,18.83
2019-02-02T06:15:22.074Z,19.70
2019-02-02T06:18:26.794Z,21.07
2019-02-02T06:21:31.227Z,21.13
2019-02-02T06:24:35.942Z,21.40
2019-02-02T06:27:40.674Z,20.97
2019-02-02T06:30:45.112Z,21.00
2019-02-02T06:33:49.566Z,21.40
2019-02-02T06:36:54.247Z,20.33
2019-02-02T06:39:58.694Z,17.83
2019-02-02T06:43:03.127Z,19.30
2019-02-02T06:46:07.829Z,25.72
2019-02-02T06:49:12.556Z,20.27
2019-02-02T06:52:17.059Z,21.70
2019-02-02T06:55:21.821Z,20.60
2019-02-02T06:58:26.544Z,21.27
2019-02-02T07:01:30.996Z,21.10
2019-02-02T07:04:35.461Z,22.67
2019-02-02T07:07:39.897Z,21.20
2019-02-02T07:10:44.648Z,19.63
2019-02-02T07:13:49.378Z,18.70
2019-02-02T07:16:53.811Z,21.27
2019-02-02T07:19:58.249Z,21.33
2019-02-02T07:23:02.698Z,21.33
2019-02-02T07:26:07.483Z,21.80
2019-02-02T07:29:12.216Z,17.10
2019-02-02T07:32:16.645Z,19.33
2019-02-02T07:35:21.468Z,19.37
2019-02-02T07:38:25.902Z,19.10
2019-02-02T07:41:30.633Z,19.17
2019-02-02T07:44:35.126Z,18.27
2019-02-02T07:47:39.883Z,17.73
2019-02-02T07:50:44.325Z,18.47
2019-02-02T07:53:48.769Z,19.17
2019-02-02T07:56:53.213Z,18.60
2019-02-02T07:59:57.984Z,18.87
2019-02-02T08:03:02.861Z,17.67
2019-02-02T08:06:07.553Z,17.03
2019-02-02T08:09:12.226Z,16.93
2019-02-02T08:12:19.434Z,17.77
2019-02-02T08:15:30.307Z,17.53
2019-02-02T08:18:34.739Z,18.73
2019-02-02T08:21:39.180Z,22.10
2019-02-02T08:24:44.479Z,25.27
2019-02-02T08:27:49.271Z,20.90
2019-02-02T08:30:53.999Z,23.50
2019-02-02T08:33:58.438Z,23.53
2019-02-02T08:37:02.881Z,22.97
2019-02-02T08:40:14.888Z,21.00
2019-02-02T08:43:19.407Z,21.13
2019-02-02T08:46:23.891Z,23.33
2019-02-02T08:49:28.397Z,22.73
2019-02-02T08:52:32.834Z,20.47
2019-02-02T08:55:37.450Z,118.20
2019-02-02T08:58:41.893Z,87.20
2019-02-02T09:01:48.213Z,19.83
2019-02-02T09:04:52.791Z,19.63
2019-02-02T09:07:57.233Z,21.00
2019-02-02T09:11:01.953Z,20.90
2019-02-02T09:14:06.693Z,21.17
2019-02-02T09:17:11.132Z,20.60
2019-02-02T09:20:17.046Z,20.60
2019-02-02T09:23:21.488Z,20.00
2019-02-02T09:26:26.331Z,21.57
2019-02-02T09:29:30.764Z,21.00
2019-02-02T09:32:35.472Z,21.93
2019-02-02T09:35:39.912Z,22.93
2019-02-02T09:38:44.626Z,26.83
2019-02-02T09:41:49.069Z,24.93
2019-02-02T09:44:53.583Z,23.60
2019-02-02T09:47:58.113Z,25.40
2019-02-02T09:51:02.546Z,23.77
2019-02-02T09:54:09.095Z,22.80
2019-02-02T09:57:13.424Z,22.83
2019-02-02T10:00:21.938Z,19.93
2019-02-02T10:03:26.679Z,18.00
2019-02-02T10:06:31.136Z,15.70
2019-02-02T10:09:37.833Z,16.47
2019-02-02T10:12:42.219Z,15.83
2019-02-02T10:15:46.659Z,15.37
2019-02-02T10:18:51.105Z,15.13
2019-02-02T10:21:55.545Z,15.43
2019-02-02T10:25:00.404Z,16.57
2019-02-02T10:28:06.365Z,15.13
2019-02-02T10:31:10.801Z,14.83
2019-02-02T10:34:15.257Z,15.00
2019-02-02T10:37:20.053Z,13.70
2019-02-02T10:40:24.491Z,15.13
2019-02-02T10:43:29.198Z,15.90
2019-02-02T10:46:33.639Z,13.93
2019-02-02T10:49:38.099Z,14.83
2019-02-02T10:52:42.535Z,15.60
2019-02-02T10:55:46.989Z,14.35
2019-02-02T10:58:51.474Z,13.57
2019-02-02T11:01:55.887Z,13.57
2019-02-02T11:05:00.406Z,13.17
2019-02-02T11:08:06.363Z,13.53
2019-02-02T11:11:11.091Z,14.23
2019-02-02T11:14:15.809Z,14.30
2019-02-02T11:17:20.245Z,15.90
2019-02-02T11:20:30.850Z,16.47
2019-02-02T11:23:35.354Z,14.93
2019-02-02T11:26:39.768Z,15.60
2019-02-02T11:29:44.233Z,15.63
2019-02-02T11:32:48.790Z,16.47
2019-02-02T11:35:53.509Z,23.40
2019-02-02T11:38:59.648Z,16.43
2019-02-02T11:42:04.617Z,17.57
2019-02-02T11:45:12.668Z,18.23
2019-02-02T11:48:17.106Z,18.17
2019-02-02T11:51:21.873Z,15.63
2019-02-02T11:54:26.323Z,15.83
2019-02-02T11:57:31.026Z,13.87
2019-02-02T12:00:41.829Z,12.97
2019-02-02T12:03:46.273Z,13.00
2019-02-02T12:06:51.060Z,13.03
2019-02-02T12:09:55.515Z,13.40
2019-02-02T12:12:59.954Z,12.83
2019-02-02T12:16:04.403Z,11.37
2019-02-02T12:19:09.234Z,12.43
2019-02-02T12:22:13.688Z,11.20
2019-02-02T12:25:18.210Z,11.67
2019-02-02T12:28:22.652Z,10.33
2019-02-02T12:31:27.165Z,9.60
2019-02-02T12:34:31.614Z,11.23
2019-02-02T12:37:36.126Z,11.90
2019-02-02T12:40:40.847Z,10.73
2019-02-02T12:43:45.582Z,11.40
2019-02-02T12:46:50.020Z,12.13
2019-02-02T12:49:54.725Z,11.17
2019-02-02T12:52:59.168Z,13.17
2019-02-02T12:56:03.887Z,14.10
2019-02-02T12:59:08.451Z,14.30
2019-02-02T13:02:12.945Z,14.53
2019-02-02T13:05:21.028Z,14.20
2019-02-02T13:08:25.774Z,14.40
2019-02-02T13:11:30.220Z,16.53
2019-02-02T13:14:34.649Z,17.77
2019-02-02T13:17:39.356Z,19.87
2019-02-02T13:20:43.850Z,18.40
2019-02-02T13:23:48.285Z,14.33
2019-02-02T13:26:53.031Z,14.50
2019-02-02T13:29:57.764Z,14.60
2019-02-02T13:33:02.501Z,14.90
2019-02-02T13:36:07.532Z,14.47
2019-02-02T13:39:12.299Z,13.00
2019-02-02T13:42:17.090Z,11.83
2019-02-02T13:45:23.241Z,12.37
2019-02-02T13:48:27.987Z,13.00
2019-02-02T13:51:32.423Z,14.80
2019-02-02T13:54:36.916Z,15.13
2019-02-02T13:57:41.361Z,15.30
2019-02-02T14:00:46.092Z,15.63
2019-02-02T14:03:50.586Z,15.10
2019-02-02T14:06:55.034Z,14.90
2019-02-02T14:09:59.773Z,15.50
2019-02-02T14:13:04.510Z,15.10
2019-02-02T14:16:09.239Z,17.13
2019-02-02T14:19:13.776Z,16.90
2019-02-02T14:22:18.218Z,16.43
2019-02-02T14:25:22.725Z,16.43
2019-02-02T14:28:28.751Z,17.77
2019-02-02T14:31:33.522Z,15.60
2019-02-02T14:34:40.231Z,14.00
2019-02-02T14:37:44.399Z,11.97
2019-02-02T14:40:49.131Z,14.10
2019-02-02T14:43:55.894Z,14.33
2019-02-02T14:47:00.077Z,15.80
2019-02-02T14:50:07.819Z,15.87
2019-02-02T14:53:12.559Z,16.67
2019-02-02T14:56:16.988Z,15.20
2019-02-02T14:59:21.430Z,14.90
2019-02-02T15:02:25.856Z,15.37
2019-02-02T15:05:42.162Z,13.40
2019-02-02T15:08:36.822Z,14.77
2019-02-02T15:11:41.557Z,14.77
2019-02-02T15:14:46.290Z,14.93
2019-02-02T15:17:50.799Z,14.17
2019-02-02T15:20:55.235Z,14.67
2019-02-02T15:23:59.673Z,15.00
2019-02-02T15:27:04.403Z,14.10
2019-02-02T15:30:13.394Z,14.20
2019-02-02T15:33:18.151Z,14.07
2019-02-02T15:36:22.582Z,14.43
2019-02-02T15:39:27.031Z,13.50
2019-02-02T15:42:31.461Z,13.83
2019-02-02T15:45:36.154Z,13.13
2019-02-02T15:48:42.557Z,13.67
2019-02-02T15:51:46.749Z,14.30
2019-02-02T15:54:51.477Z,14.53
2019-02-02T15:57:56.310Z,14.60
2019-02-02T16:01:01.046Z,14.37
2019-02-02T16:04:05.562Z,13.47
2019-02-02T16:07:10.294Z,14.87
2019-02-02T16:10:18.809Z,14.83
2019-02-02T16:13:23.239Z,14.77
2019-02-02T16:16:27.688Z,14.20
2019-02-02T16:19:32.403Z,15.23
2019-02-02T16:22:37.128Z,13.83
2019-02-02T16:25:41.567Z,15.53
2019-02-02T16:28:45.996Z,15.47
2019-02-02T16:31:50.701Z,15.07
2019-02-02T16:34:55.427Z,14.97
2019-02-02T16:37:59.858Z,14.10
2019-02-02T16:41:04.583Z,12.97
2019-02-02T16:44:09.084Z,12.90
2019-02-02T16:47:13.841Z,13.03
2019-02-02T16:50:22.058Z,12.80
2019-02-02T16:53:26.484Z,11.90
2019-02-02T16:56:31.208Z,12.47
2019-02-02T16:59:36.124Z,13.13
2019-02-02T17:02:40.557Z,12.53
2019-02-02T17:05:45.398Z,13.13
2019-02-02T17:08:49.827Z,13.50
2019-02-02T17:11:54.556Z,13.97
2019-02-02T17:14:59.003Z,14.27
2019-02-02T17:18:03.499Z,14.10
2019-02-02T17:21:08.232Z,14.63
2019-02-02T17:24:12.663Z,14.73
2019-02-02T17:27:17.106Z,14.23
2019-02-02T17:30:26.158Z,13.93
2019-02-02T17:33:30.628Z,14.13
2019-02-02T17:36:35.066Z,14.83
2019-02-02T17:39:39.495Z,16.53
2019-02-02T17:42:44.425Z,16.63
2019-02-02T17:45:48.871Z,16.67
2019-02-02T17:48:53.304Z,14.77
2019-02-02T17:51:57.999Z,15.27
2019-02-02T17:55:02.726Z,15.63
2019-02-02T17:58:07.164Z,15.63
2019-02-02T18:01:11.603Z,15.63
2019-02-02T18:04:16.038Z,15.77
2019-02-02T18:07:20.735Z,16.50
2019-02-02T18:10:25.167Z,17.57
2019-02-02T18:13:29.892Z,16.27
2019-02-02T18:16:34.335Z,15.77
2019-02-02T18:19:38.769Z,17.37
2019-02-02T18:22:43.285Z,15.90
2019-02-02T18:25:47.714Z,17.57
2019-02-02T18:28:53.961Z,17.00
2019-02-02T18:31:58.480Z,18.67
2019-02-02T18:35:02.924Z,17.90
2019-02-02T18:38:07.736Z,18.13
2019-02-02T18:41:12.172Z,19.77
2019-02-02T18:44:16.606Z,18.77
2019-02-02T18:47:21.315Z,18.90
2019-02-02T18:50:26.146Z,19.53
2019-02-02T18:53:30.876Z,19.80
2019-02-02T18:56:35.323Z,19.13
2019-02-02T18:59:39.814Z,19.50
2019-02-02T19:02:44.274Z,18.53
2019-02-02T19:05:48.978Z,21.80
2019-02-02T19:08:53.500Z,19.20
2019-02-02T19:11:57.940Z,19.57
2019-02-02T19:15:02.600Z,20.60
2019-02-02T19:18:08.271Z,20.93
2019-02-02T19:21:13.039Z,20.93
2019-02-02T19:24:17.781Z,20.77
2019-02-02T19:27:22.517Z,19.93
2019-02-02T19:30:33.274Z,19.23
2019-02-02T19:33:38.135Z,19.60
2019-02-02T19:36:42.513Z,19.43
2019-02-02T19:39:47.268Z,20.37
2019-02-02T19:42:51.996Z,20.57
2019-02-02T19:45:56.731Z,21.07
2019-02-02T19:49:01.168Z,22.13
2019-02-02T19:52:05.994Z,22.37
2019-02-02T19:55:14.690Z,21.50
2019-02-02T19:58:16.892Z,21.40
2019-02-02T20:01:21.326Z,22.93
2019-02-02T20:04:25.820Z,24.43
2019-02-02T20:07:30.560Z,21.50
2019-02-02T20:10:35.003Z,20.87
2019-02-02T20:13:39.712Z,21.43
2019-02-02T20:16:44.159Z,21.00
2019-02-02T20:19:48.615Z,22.73
2019-02-02T20:22:53.920Z,22.70
2019-02-02T20:25:58.952Z,22.10
2019-02-02T20:29:03.956Z,21.10
2019-02-02T20:32:08.414Z,19.63
2019-02-02T20:35:15.574Z,19.90
2019-02-02T20:38:20.010Z,20.27
2019-02-02T20:41:24.450Z,23.07
2019-02-02T20:44:28.894Z,21.83
2019-02-02T20:47:33.403Z,21.63
2019-02-02T20:50:38.235Z,19.70
2019-02-02T20:53:42.633Z,22.17
2019-02-02T20:56:47.068Z,23.17
2019-02-02T20:59:51.511Z,21.73
2019-02-02T21:02:56.644Z,22.83
2019-02-02T21:06:01.374Z,21.00
2019-02-02T21:09:07.527Z,22.27
2019-02-02T21:12:12.289Z,22.10
2019-02-02T21:15:17.695Z,23.73
2019-02-02T21:18:22.284Z,22.50
2019-02-02T21:21:27.089Z,22.43
2019-02-02T21:24:31.568Z,22.63
2019-02-02T21:27:36.012Z,22.67
2019-02-02T21:30:40.499Z,23.87
2019-02-02T21:33:45.287Z,23.23
2019-02-02T21:36:49.754Z,24.13
2019-02-02T21:39:54.199Z,24.27
2019-02-02T21:42:58.810Z,24.63
2019-02-02T21:46:03.428Z,22.17
2019-02-02T21:49:08.318Z,22.03
2019-02-02T21:52:12.763Z,19.87
2019-02-02T21:55:23.991Z,21.27
2019-02-02T21:58:28.500Z,26.87
2019-02-02T22:01:33.271Z,28.07
2019-02-02T22:04:37.740Z,27.70
2019-02-02T22:07:42.536Z,26.13
2019-02-02T22:10:47.264Z,25.47
2019-02-02T22:13:51.733Z,26.63
2019-02-02T22:16:56.550Z,25.50
2019-02-02T22:20:01.069Z,25.40
2019-02-02T22:23:05.882Z,26.53
2019-02-02T22:26:10.654Z,28.60
2019-02-02T22:29:15.107Z,25.57
2019-02-02T22:32:19.560Z,28.73
2019-02-02T22:35:24.161Z,29.20
2019-02-02T22:38:28.671Z,26.23
2019-02-02T22:41:33.118Z,30.23
2019-02-02T22:44:37.744Z,28.60
2019-02-02T22:48:02.254Z,28.23
2019-02-02T22:51:07.191Z,28.63
2019-02-02T22:54:11.642Z,28.00
2019-02-02T22:57:16.161Z,28.13
2019-02-02T23:00:50.065Z,27.87
2019-02-02T23:04:10.663Z,29.23
2019-02-02T23:07:22.777Z,26.23
2019-02-02T23:10:49.821Z,26.23
2019-02-02T23:14:13.142Z,25.73
2019-02-02T23:17:17.588Z,27.87
2019-02-02T23:20:22.334Z,29.67
2019-02-02T23:23:26.786Z,28.20
2019-02-02T23:26:31.321Z,26.27
2019-02-02T23:29:36.028Z,25.90
2019-02-02T23:32:40.747Z,26.07
2019-02-02T23:35:45.208Z,24.70
2019-02-02T23:38:50.020Z,27.77
2019-02-02T23:41:54.848Z,28.53
2019-02-02T23:44:59.282Z,30.30
2019-02-02T23:48:03.722Z,29.70
2019-02-02T23:51:08.164Z,31.67
2019-02-02T23:54:12.598Z,31.27
2019-02-02T23:57:17.046Z,31.03
